sensor_id;sensor_type;location;lat;lon;timestamp;P1;durP1;ratioP1;P2;durP2;ratioP2
79135;SDS011;68533;51.090;17.216;2023-07-24T00:01:23;2.42;;;1.90;;
79135;SDS011;68533;51.090;17.216;2023-07-24T00:03:49;1.83;;;1.00;;
79135;SDS011;68533;51.090;17.216;2023-07-24T00:06:15;10.35;;;1.25;;
79135;SDS011;68533;51.090;17.216;2023-07-24T00:08:41;5.95;;;1.70;;
79135;SDS011;68533;51.090;17.216;2023-07-24T00:11:10;3.05;;;1.42;;
79135;SDS011;68533;51.090;17.216;2023-07-24T00:13:36;1.88;;;0.82;;
79135;SDS011;68533;51.090;17.216;2023-07-24T00:16:05;2.40;;;1.23;;
79135;SDS011;68533;51.090;17.216;2023-07-24T00:18:33;1.42;;;0.65;;
79135;SDS011;68533;51.090;17.216;2023-07-24T00:20:59;2.40;;;1.13;;
79135;SDS011;68533;51.090;17.216;2023-07-24T00:23:26;1.20;;;0.90;;
79135;SDS011;68533;51.090;17.216;2023-07-24T00:25:52;2.60;;;1.13;;
79135;SDS011;68533;51.090;17.216;2023-07-24T00:28:19;1.50;;;0.77;;
79135;SDS011;68533;51.090;17.216;2023-07-24T00:30:45;1.20;;;0.68;;
79135;SDS011;68533;51.090;17.216;2023-07-24T00:33:12;1.02;;;0.82;;
79135;SDS011;68533;51.090;17.216;2023-07-24T00:35:38;2.75;;;1.10;;
79135;SDS011;68533;51.090;17.216;2023-07-24T00:38:04;1.98;;;1.17;;
79135;SDS011;68533;51.090;17.216;2023-07-24T00:40:29;1.10;;;0.98;;
79135;SDS011;68533;51.090;17.216;2023-07-24T00:42:55;3.00;;;1.17;;
79135;SDS011;68533;51.090;17.216;2023-07-24T00:45:22;2.33;;;1.17;;
79135;SDS011;68533;51.090;17.216;2023-07-24T00:47:48;2.63;;;0.98;;
79135;SDS011;68533;51.090;17.216;2023-07-24T00:50:14;3.63;;;1.83;;
79135;SDS011;68533;51.090;17.216;2023-07-24T00:52:42;1.40;;;0.65;;
79135;SDS011;68533;51.090;17.216;2023-07-24T00:55:09;1.48;;;0.85;;
79135;SDS011;68533;51.090;17.216;2023-07-24T00:57:38;2.40;;;1.05;;
79135;SDS011;68533;51.090;17.216;2023-07-24T01:00:06;2.75;;;1.25;;
79135;SDS011;68533;51.090;17.216;2023-07-24T01:02:36;2.78;;;0.90;;
79135;SDS011;68533;51.090;17.216;2023-07-24T01:05:05;3.55;;;1.05;;
79135;SDS011;68533;51.090;17.216;2023-07-24T01:07:32;2.42;;;1.80;;
79135;SDS011;68533;51.090;17.216;2023-07-24T01:09:58;1.65;;;1.00;;
79135;SDS011;68533;51.090;17.216;2023-07-24T01:12:31;5.72;;;1.15;;
79135;SDS011;68533;51.090;17.216;2023-07-24T01:15:09;4.28;;;1.10;;
79135;SDS011;68533;51.090;17.216;2023-07-24T01:17:45;1.02;;;0.77;;
79135;SDS011;68533;51.090;17.216;2023-07-24T01:20:15;2.00;;;0.73;;
79135;SDS011;68533;51.090;17.216;2023-07-24T01:25:33;2.03;;;0.80;;
79135;SDS011;68533;51.090;17.216;2023-07-24T01:28:11;2.75;;;1.17;;
79135;SDS011;68533;51.090;17.216;2023-07-24T01:30:37;2.08;;;0.82;;
79135;SDS011;68533;51.090;17.216;2023-07-24T01:33:03;6.35;;;1.50;;
79135;SDS011;68533;51.090;17.216;2023-07-24T01:35:30;1.48;;;0.88;;
79135;SDS011;68533;51.090;17.216;2023-07-24T01:37:57;1.50;;;0.70;;
79135;SDS011;68533;51.090;17.216;2023-07-24T01:40:25;1.55;;;0.60;;
79135;SDS011;68533;51.090;17.216;2023-07-24T01:42:51;1.38;;;0.93;;
79135;SDS011;68533;51.090;17.216;2023-07-24T01:45:17;2.55;;;1.50;;
79135;SDS011;68533;51.090;17.216;2023-07-24T01:47:43;2.03;;;1.33;;
79135;SDS011;68533;51.090;17.216;2023-07-24T01:50:09;5.75;;;0.98;;
79135;SDS011;68533;51.090;17.216;2023-07-24T01:52:35;7.68;;;1.50;;
79135;SDS011;68533;51.090;17.216;2023-07-24T01:55:01;1.75;;;1.10;;
79135;SDS011;68533;51.090;17.216;2023-07-24T01:57:27;0.85;;;0.65;;
79135;SDS011;68533;51.090;17.216;2023-07-24T01:59:53;0.63;;;0.63;;
79135;SDS011;68533;51.090;17.216;2023-07-24T02:02:19;1.50;;;0.95;;
79135;SDS011;68533;51.090;17.216;2023-07-24T02:04:46;1.13;;;0.80;;
79135;SDS011;68533;51.090;17.216;2023-07-24T02:07:12;2.30;;;1.10;;
79135;SDS011;68533;51.090;17.216;2023-07-24T02:09:37;2.20;;;1.23;;
79135;SDS011;68533;51.090;17.216;2023-07-24T02:12:04;1.13;;;0.90;;
79135;SDS011;68533;51.090;17.216;2023-07-24T02:14:32;1.83;;;1.42;;
79135;SDS011;68533;51.090;17.216;2023-07-24T02:16:58;1.27;;;0.85;;
79135;SDS011;68533;51.090;17.216;2023-07-24T02:19:24;1.60;;;0.88;;
79135;SDS011;68533;51.090;17.216;2023-07-24T02:21:50;1.88;;;1.05;;
79135;SDS011;68533;51.090;17.216;2023-07-24T02:24:15;1.92;;;0.65;;
79135;SDS011;68533;51.090;17.216;2023-07-24T02:26:42;5.72;;;0.85;;
79135;SDS011;68533;51.090;17.216;2023-07-24T02:29:07;1.98;;;1.17;;
79135;SDS011;68533;51.090;17.216;2023-07-24T02:31:33;0.98;;;0.80;;
79135;SDS011;68533;51.090;17.216;2023-07-24T02:33:59;1.52;;;1.42;;
79135;SDS011;68533;51.090;17.216;2023-07-24T02:36:26;1.27;;;1.10;;
79135;SDS011;68533;51.090;17.216;2023-07-24T02:38:51;2.20;;;1.10;;
79135;SDS011;68533;51.090;17.216;2023-07-24T02:41:17;0.85;;;0.55;;
79135;SDS011;68533;51.090;17.216;2023-07-24T02:43:43;7.05;;;1.23;;
79135;SDS011;68533;51.090;17.216;2023-07-24T02:46:09;0.90;;;0.55;;
79135;SDS011;68533;51.090;17.216;2023-07-24T02:48:35;1.33;;;1.02;;
79135;SDS011;68533;51.090;17.216;2023-07-24T02:51:01;1.83;;;0.88;;
79135;SDS011;68533;51.090;17.216;2023-07-24T02:53:27;3.53;;;1.33;;
79135;SDS011;68533;51.090;17.216;2023-07-24T02:55:57;2.03;;;1.45;;
79135;SDS011;68533;51.090;17.216;2023-07-24T02:58:23;3.70;;;1.30;;
79135;SDS011;68533;51.090;17.216;2023-07-24T03:00:52;1.52;;;1.02;;
79135;SDS011;68533;51.090;17.216;2023-07-24T03:03:17;2.08;;;0.93;;
79135;SDS011;68533;51.090;17.216;2023-07-24T03:05:44;4.35;;;1.13;;
79135;SDS011;68533;51.090;17.216;2023-07-24T03:08:09;3.75;;;1.00;;
79135;SDS011;68533;51.090;17.216;2023-07-24T03:10:39;1.38;;;0.75;;
79135;SDS011;68533;51.090;17.216;2023-07-24T03:13:06;2.42;;;0.90;;
79135;SDS011;68533;51.090;17.216;2023-07-24T03:15:33;1.70;;;1.13;;
79135;SDS011;68533;51.090;17.216;2023-07-24T03:17:59;2.08;;;0.82;;
79135;SDS011;68533;51.090;17.216;2023-07-24T03:20:26;1.98;;;0.88;;
79135;SDS011;68533;51.090;17.216;2023-07-24T03:22:52;3.97;;;1.05;;
79135;SDS011;68533;51.090;17.216;2023-07-24T03:25:18;1.55;;;0.85;;
79135;SDS011;68533;51.090;17.216;2023-07-24T03:27:45;1.75;;;0.68;;
79135;SDS011;68533;51.090;17.216;2023-07-24T03:30:11;2.15;;;1.27;;
79135;SDS011;68533;51.090;17.216;2023-07-24T03:32:37;5.63;;;1.42;;
79135;SDS011;68533;51.090;17.216;2023-07-24T03:35:04;2.25;;;1.10;;
79135;SDS011;68533;51.090;17.216;2023-07-24T03:37:31;1.65;;;1.30;;
79135;SDS011;68533;51.090;17.216;2023-07-24T03:39:59;1.73;;;0.95;;
79135;SDS011;68533;51.090;17.216;2023-07-24T03:42:25;1.70;;;0.93;;
79135;SDS011;68533;51.090;17.216;2023-07-24T03:44:53;1.98;;;0.90;;
79135;SDS011;68533;51.090;17.216;2023-07-24T03:47:19;1.98;;;0.85;;
79135;SDS011;68533;51.090;17.216;2023-07-24T03:49:45;5.20;;;1.73;;
79135;SDS011;68533;51.090;17.216;2023-07-24T03:52:11;2.10;;;0.73;;
79135;SDS011;68533;51.090;17.216;2023-07-24T03:54:38;1.90;;;1.15;;
79135;SDS011;68533;51.090;17.216;2023-07-24T03:57:04;2.17;;;0.85;;
79135;SDS011;68533;51.090;17.216;2023-07-24T03:59:31;4.50;;;1.08;;
79135;SDS011;68533;51.090;17.216;2023-07-24T04:01:57;1.67;;;0.90;;
79135;SDS011;68533;51.090;17.216;2023-07-24T04:04:23;3.28;;;1.25;;
79135;SDS011;68533;51.090;17.216;2023-07-24T04:06:50;1.80;;;1.35;;
79135;SDS011;68533;51.090;17.216;2023-07-24T04:09:17;0.75;;;0.50;;
79135;SDS011;68533;51.090;17.216;2023-07-24T04:11:43;2.60;;;0.77;;
79135;SDS011;68533;51.090;17.216;2023-07-24T04:14:10;7.90;;;0.80;;
79135;SDS011;68533;51.090;17.216;2023-07-24T04:16:36;3.70;;;1.50;;
79135;SDS011;68533;51.090;17.216;2023-07-24T04:19:02;2.20;;;0.75;;
79135;SDS011;68533;51.090;17.216;2023-07-24T04:21:29;1.15;;;0.60;;
79135;SDS011;68533;51.090;17.216;2023-07-24T04:23:55;1.15;;;0.90;;
79135;SDS011;68533;51.090;17.216;2023-07-24T04:26:21;3.53;;;1.25;;
79135;SDS011;68533;51.090;17.216;2023-07-24T04:28:47;1.30;;;0.88;;
79135;SDS011;68533;51.090;17.216;2023-07-24T04:31:13;1.20;;;1.00;;
79135;SDS011;68533;51.090;17.216;2023-07-24T04:33:39;2.88;;;1.13;;
79135;SDS011;68533;51.090;17.216;2023-07-24T04:36:05;0.98;;;0.70;;
79135;SDS011;68533;51.090;17.216;2023-07-24T04:38:31;0.88;;;0.60;;
79135;SDS011;68533;51.090;17.216;2023-07-24T04:40:59;3.28;;;0.60;;
79135;SDS011;68533;51.090;17.216;2023-07-24T04:44:14;1.55;;;0.52;;
79135;SDS011;68533;51.090;17.216;2023-07-24T04:46:41;4.03;;;1.00;;
79135;SDS011;68533;51.090;17.216;2023-07-24T04:49:07;3.38;;;2.08;;
79135;SDS011;68533;51.090;17.216;2023-07-24T04:51:33;2.13;;;1.05;;
79135;SDS011;68533;51.090;17.216;2023-07-24T04:53:58;2.72;;;1.40;;
79135;SDS011;68533;51.090;17.216;2023-07-24T04:56:25;2.00;;;1.40;;
79135;SDS011;68533;51.090;17.216;2023-07-24T04:58:50;5.03;;;1.75;;
79135;SDS011;68533;51.090;17.216;2023-07-24T05:01:16;1.50;;;0.70;;
79135;SDS011;68533;51.090;17.216;2023-07-24T05:03:42;2.55;;;1.10;;
79135;SDS011;68533;51.090;17.216;2023-07-24T05:06:08;4.95;;;1.73;;
79135;SDS011;68533;51.090;17.216;2023-07-24T05:08:34;2.72;;;1.60;;
79135;SDS011;68533;51.090;17.216;2023-07-24T05:11:00;2.03;;;1.40;;
79135;SDS011;68533;51.090;17.216;2023-07-24T05:13:26;1.67;;;0.95;;
79135;SDS011;68533;51.090;17.216;2023-07-24T05:15:53;1.90;;;0.90;;
79135;SDS011;68533;51.090;17.216;2023-07-24T05:18:19;1.42;;;1.25;;
79135;SDS011;68533;51.090;17.216;2023-07-24T05:20:46;2.00;;;1.17;;
79135;SDS011;68533;51.090;17.216;2023-07-24T05:23:14;2.05;;;1.25;;
79135;SDS011;68533;51.090;17.216;2023-07-24T05:25:42;1.75;;;1.10;;
79135;SDS011;68533;51.090;17.216;2023-07-24T05:28:09;3.35;;;1.42;;
79135;SDS011;68533;51.090;17.216;2023-07-24T05:33:02;1.55;;;1.20;;
79135;SDS011;68533;51.090;17.216;2023-07-24T05:35:28;1.35;;;0.70;;
79135;SDS011;68533;51.090;17.216;2023-07-24T05:37:54;2.55;;;1.17;;
79135;SDS011;68533;51.090;17.216;2023-07-24T05:40:20;2.83;;;1.33;;
79135;SDS011;68533;51.090;17.216;2023-07-24T05:42:46;3.58;;;1.50;;
79135;SDS011;68533;51.090;17.216;2023-07-24T05:45:13;3.47;;;1.58;;
79135;SDS011;68533;51.090;17.216;2023-07-24T05:47:42;1.95;;;1.20;;
79135;SDS011;68533;51.090;17.216;2023-07-24T05:50:08;1.15;;;1.10;;
79135;SDS011;68533;51.090;17.216;2023-07-24T05:52:34;1.30;;;0.93;;
79135;SDS011;68533;51.090;17.216;2023-07-24T05:55:01;3.83;;;1.25;;
79135;SDS011;68533;51.090;17.216;2023-07-24T05:57:28;2.45;;;1.23;;
79135;SDS011;68533;51.090;17.216;2023-07-24T05:59:54;1.73;;;1.15;;
79135;SDS011;68533;51.090;17.216;2023-07-24T06:02:21;1.15;;;0.95;;
79135;SDS011;68533;51.090;17.216;2023-07-24T06:04:47;2.22;;;1.73;;
79135;SDS011;68533;51.090;17.216;2023-07-24T06:07:13;2.53;;;1.63;;
79135;SDS011;68533;51.090;17.216;2023-07-24T06:09:39;4.50;;;1.02;;
79135;SDS011;68533;51.090;17.216;2023-07-24T06:12:05;3.75;;;1.58;;
79135;SDS011;68533;51.090;17.216;2023-07-24T06:14:31;2.78;;;1.25;;
79135;SDS011;68533;51.090;17.216;2023-07-24T06:16:57;1.98;;;1.33;;
79135;SDS011;68533;51.090;17.216;2023-07-24T06:19:23;4.60;;;1.55;;
79135;SDS011;68533;51.090;17.216;2023-07-24T06:21:49;0.98;;;0.70;;
79135;SDS011;68533;51.090;17.216;2023-07-24T06:24:15;2.42;;;1.73;;
79135;SDS011;68533;51.090;17.216;2023-07-24T06:26:41;1.75;;;0.68;;
79135;SDS011;68533;51.090;17.216;2023-07-24T06:29:07;1.50;;;0.95;;
79135;SDS011;68533;51.090;17.216;2023-07-24T06:31:33;2.40;;;1.15;;
79135;SDS011;68533;51.090;17.216;2023-07-24T06:34:00;2.10;;;1.27;;
79135;SDS011;68533;51.090;17.216;2023-07-24T06:36:26;2.50;;;1.30;;
79135;SDS011;68533;51.090;17.216;2023-07-24T06:38:54;2.30;;;0.93;;
79135;SDS011;68533;51.090;17.216;2023-07-24T06:41:20;2.97;;;1.52;;
79135;SDS011;68533;51.090;17.216;2023-07-24T06:43:49;1.73;;;1.05;;
79135;SDS011;68533;51.090;17.216;2023-07-24T06:46:15;3.28;;;1.00;;
79135;SDS011;68533;51.090;17.216;2023-07-24T06:48:44;1.92;;;1.17;;
79135;SDS011;68533;51.090;17.216;2023-07-24T06:51:10;3.05;;;1.42;;
79135;SDS011;68533;51.090;17.216;2023-07-24T06:53:36;1.55;;;0.82;;
79135;SDS011;68533;51.090;17.216;2023-07-24T06:56:02;2.88;;;1.70;;
79135;SDS011;68533;51.090;17.216;2023-07-24T06:58:28;2.70;;;1.52;;
79135;SDS011;68533;51.090;17.216;2023-07-24T07:00:54;3.55;;;1.25;;
79135;SDS011;68533;51.090;17.216;2023-07-24T07:03:20;2.47;;;1.23;;
79135;SDS011;68533;51.090;17.216;2023-07-24T07:05:46;2.53;;;1.45;;
79135;SDS011;68533;51.090;17.216;2023-07-24T07:08:12;3.03;;;1.60;;
79135;SDS011;68533;51.090;17.216;2023-07-24T07:10:38;1.35;;;1.25;;
79135;SDS011;68533;51.090;17.216;2023-07-24T07:13:04;1.23;;;0.88;;
79135;SDS011;68533;51.090;17.216;2023-07-24T07:15:31;10.85;;;1.67;;
79135;SDS011;68533;51.090;17.216;2023-07-24T07:17:57;3.30;;;1.80;;
79135;SDS011;68533;51.090;17.216;2023-07-24T07:20:23;4.45;;;2.28;;
79135;SDS011;68533;51.090;17.216;2023-07-24T07:22:49;2.88;;;1.60;;
79135;SDS011;68533;51.090;17.216;2023-07-24T07:25:15;1.92;;;1.00;;
79135;SDS011;68533;51.090;17.216;2023-07-24T07:27:41;2.22;;;1.50;;
79135;SDS011;68533;51.090;17.216;2023-07-24T07:30:07;2.70;;;1.38;;
79135;SDS011;68533;51.090;17.216;2023-07-24T07:32:34;2.75;;;1.83;;
79135;SDS011;68533;51.090;17.216;2023-07-24T07:35:00;3.30;;;1.60;;
79135;SDS011;68533;51.090;17.216;2023-07-24T07:37:28;1.58;;;1.02;;
79135;SDS011;68533;51.090;17.216;2023-07-24T07:39:56;5.47;;;1.48;;
79135;SDS011;68533;51.090;17.216;2023-07-24T07:42:22;2.97;;;1.73;;
79135;SDS011;68533;51.090;17.216;2023-07-24T07:44:48;2.92;;;1.65;;
79135;SDS011;68533;51.090;17.216;2023-07-24T07:47:14;2.83;;;1.38;;
79135;SDS011;68533;51.090;17.216;2023-07-24T07:49:40;2.63;;;1.45;;
79135;SDS011;68533;51.090;17.216;2023-07-24T07:52:07;3.15;;;1.77;;
79135;SDS011;68533;51.090;17.216;2023-07-24T07:54:33;2.40;;;1.42;;
79135;SDS011;68533;51.090;17.216;2023-07-24T07:57:01;2.28;;;2.00;;
79135;SDS011;68533;51.090;17.216;2023-07-24T07:59:27;2.35;;;1.63;;
79135;SDS011;68533;51.090;17.216;2023-07-24T08:01:53;1.70;;;1.20;;
79135;SDS011;68533;51.090;17.216;2023-07-24T08:04:19;5.43;;;1.55;;
79135;SDS011;68533;51.090;17.216;2023-07-24T08:06:45;2.67;;;1.70;;
79135;SDS011;68533;51.090;17.216;2023-07-24T08:09:11;3.08;;;1.60;;
79135;SDS011;68533;51.090;17.216;2023-07-24T08:11:37;2.60;;;1.40;;
79135;SDS011;68533;51.090;17.216;2023-07-24T08:14:03;4.25;;;1.67;;
79135;SDS011;68533;51.090;17.216;2023-07-24T08:16:31;5.50;;;2.47;;
79135;SDS011;68533;51.090;17.216;2023-07-24T08:18:57;3.42;;;1.83;;
79135;SDS011;68533;51.090;17.216;2023-07-24T08:21:23;3.97;;;1.67;;
79135;SDS011;68533;51.090;17.216;2023-07-24T08:23:50;2.88;;;1.65;;
79135;SDS011;68533;51.090;17.216;2023-07-24T08:26:16;3.45;;;1.67;;
79135;SDS011;68533;51.090;17.216;2023-07-24T08:28:42;2.13;;;1.42;;
79135;SDS011;68533;51.090;17.216;2023-07-24T08:31:08;2.08;;;1.40;;
79135;SDS011;68533;51.090;17.216;2023-07-24T08:33:34;4.25;;;1.60;;
79135;SDS011;68533;51.090;17.216;2023-07-24T08:36:02;3.75;;;1.92;;
79135;SDS011;68533;51.090;17.216;2023-07-24T08:38:30;4.28;;;1.50;;
79135;SDS011;68533;51.090;17.216;2023-07-24T08:41:14;4.40;;;1.98;;
79135;SDS011;68533;51.090;17.216;2023-07-24T08:43:41;3.08;;;1.50;;
79135;SDS011;68533;51.090;17.216;2023-07-24T08:46:22;1.92;;;1.27;;
79135;SDS011;68533;51.090;17.216;2023-07-24T08:48:48;2.50;;;1.40;;
79135;SDS011;68533;51.090;17.216;2023-07-24T08:51:15;3.00;;;1.67;;
79135;SDS011;68533;51.090;17.216;2023-07-24T08:53:42;3.58;;;1.75;;
79135;SDS011;68533;51.090;17.216;2023-07-24T08:56:10;5.25;;;1.77;;
79135;SDS011;68533;51.090;17.216;2023-07-24T08:58:40;2.95;;;2.13;;
79135;SDS011;68533;51.090;17.216;2023-07-24T09:01:07;1.90;;;1.17;;
79135;SDS011;68533;51.090;17.216;2023-07-24T09:03:34;2.40;;;1.70;;
79135;SDS011;68533;51.090;17.216;2023-07-24T09:06:00;3.20;;;1.60;;
79135;SDS011;68533;51.090;17.216;2023-07-24T09:08:30;5.90;;;1.98;;
79135;SDS011;68533;51.090;17.216;2023-07-24T09:10:57;2.42;;;1.38;;
79135;SDS011;68533;51.090;17.216;2023-07-24T09:13:24;3.80;;;1.80;;
79135;SDS011;68533;51.090;17.216;2023-07-24T09:15:51;4.82;;;1.90;;
79135;SDS011;68533;51.090;17.216;2023-07-24T09:18:17;2.47;;;1.17;;
79135;SDS011;68533;51.090;17.216;2023-07-24T09:20:44;3.75;;;1.80;;
79135;SDS011;68533;51.090;17.216;2023-07-24T09:23:11;6.68;;;1.65;;
79135;SDS011;68533;51.090;17.216;2023-07-24T09:25:39;5.47;;;2.17;;
79135;SDS011;68533;51.090;17.216;2023-07-24T09:28:14;3.67;;;2.15;;
79135;SDS011;68533;51.090;17.216;2023-07-24T09:30:42;2.80;;;1.67;;
79135;SDS011;68533;51.090;17.216;2023-07-24T09:33:17;3.88;;;1.88;;
79135;SDS011;68533;51.090;17.216;2023-07-24T09:35:44;5.82;;;2.25;;
79135;SDS011;68533;51.090;17.216;2023-07-24T09:38:10;3.40;;;1.85;;
79135;SDS011;68533;51.090;17.216;2023-07-24T09:40:38;4.38;;;2.05;;
79135;SDS011;68533;51.090;17.216;2023-07-24T09:43:21;4.45;;;2.08;;
79135;SDS011;68533;51.090;17.216;2023-07-24T09:45:51;4.18;;;1.80;;
79135;SDS011;68533;51.090;17.216;2023-07-24T09:48:19;2.30;;;1.13;;
79135;SDS011;68533;51.090;17.216;2023-07-24T09:50:48;3.40;;;1.95;;
79135;SDS011;68533;51.090;17.216;2023-07-24T09:53:21;5.15;;;2.33;;
79135;SDS011;68533;51.090;17.216;2023-07-24T09:55:58;4.88;;;2.25;;
79135;SDS011;68533;51.090;17.216;2023-07-24T09:58:27;2.75;;;1.48;;
79135;SDS011;68533;51.090;17.216;2023-07-24T10:00:55;2.50;;;1.60;;
79135;SDS011;68533;51.090;17.216;2023-07-24T10:03:25;3.75;;;1.88;;
79135;SDS011;68533;51.090;17.216;2023-07-24T10:05:52;2.85;;;1.60;;
79135;SDS011;68533;51.090;17.216;2023-07-24T10:08:19;4.38;;;1.75;;
79135;SDS011;68533;51.090;17.216;2023-07-24T10:10:46;3.65;;;1.73;;
79135;SDS011;68533;51.090;17.216;2023-07-24T10:13:12;2.33;;;1.58;;
79135;SDS011;68533;51.090;17.216;2023-07-24T10:15:42;4.03;;;1.83;;
79135;SDS011;68533;51.090;17.216;2023-07-24T10:18:08;3.35;;;1.83;;
79135;SDS011;68533;51.090;17.216;2023-07-24T10:20:36;2.50;;;1.50;;
79135;SDS011;68533;51.090;17.216;2023-07-24T10:23:07;2.65;;;1.38;;
79135;SDS011;68533;51.090;17.216;2023-07-24T10:25:38;3.13;;;1.48;;
79135;SDS011;68533;51.090;17.216;2023-07-24T10:28:09;4.07;;;1.88;;
79135;SDS011;68533;51.090;17.216;2023-07-24T10:30:37;3.22;;;1.65;;
79135;SDS011;68533;51.090;17.216;2023-07-24T10:33:10;2.13;;;1.58;;
79135;SDS011;68533;51.090;17.216;2023-07-24T10:35:47;3.80;;;1.95;;
79135;SDS011;68533;51.090;17.216;2023-07-24T10:38:16;2.85;;;1.83;;
79135;SDS011;68533;51.090;17.216;2023-07-24T10:40:43;3.50;;;2.00;;
79135;SDS011;68533;51.090;17.216;2023-07-24T10:43:12;3.30;;;1.38;;
79135;SDS011;68533;51.090;17.216;2023-07-24T10:45:50;3.50;;;1.83;;
79135;SDS011;68533;51.090;17.216;2023-07-24T10:48:18;2.15;;;1.55;;
79135;SDS011;68533;51.090;17.216;2023-07-24T10:50:47;5.45;;;2.40;;
79135;SDS011;68533;51.090;17.216;2023-07-24T10:53:15;4.05;;;1.67;;
79135;SDS011;68533;51.090;17.216;2023-07-24T10:55:43;3.67;;;1.50;;
79135;SDS011;68533;51.090;17.216;2023-07-24T10:58:11;3.35;;;1.55;;
79135;SDS011;68533;51.090;17.216;2023-07-24T11:00:41;2.72;;;1.48;;
79135;SDS011;68533;51.090;17.216;2023-07-24T11:03:11;3.72;;;2.00;;
79135;SDS011;68533;51.090;17.216;2023-07-24T11:05:44;3.75;;;2.00;;
79135;SDS011;68533;51.090;17.216;2023-07-24T11:08:12;6.38;;;2.20;;
79135;SDS011;68533;51.090;17.216;2023-07-24T11:10:52;3.17;;;2.00;;
79135;SDS011;68533;51.090;17.216;2023-07-24T11:13:21;5.53;;;1.85;;
79135;SDS011;68533;51.090;17.216;2023-07-24T11:15:48;3.28;;;1.83;;
79135;SDS011;68533;51.090;17.216;2023-07-24T11:18:16;5.65;;;1.73;;
79135;SDS011;68533;51.090;17.216;2023-07-24T11:20:49;3.08;;;1.60;;
79135;SDS011;68533;51.090;17.216;2023-07-24T11:23:21;3.00;;;1.45;;
79135;SDS011;68533;51.090;17.216;2023-07-24T11:25:51;2.95;;;1.92;;
79135;SDS011;68533;51.090;17.216;2023-07-24T11:28:18;3.50;;;1.80;;
79135;SDS011;68533;51.090;17.216;2023-07-24T11:30:45;3.53;;;1.65;;
79135;SDS011;68533;51.090;17.216;2023-07-24T11:33:12;4.05;;;1.73;;
79135;SDS011;68533;51.090;17.216;2023-07-24T11:35:40;6.10;;;2.45;;
79135;SDS011;68533;51.090;17.216;2023-07-24T11:38:08;3.70;;;1.95;;
79135;SDS011;68533;51.090;17.216;2023-07-24T11:43:18;5.03;;;1.63;;
79135;SDS011;68533;51.090;17.216;2023-07-24T11:45:46;2.58;;;1.95;;
79135;SDS011;68533;51.090;17.216;2023-07-24T11:48:18;3.35;;;1.58;;
79135;SDS011;68533;51.090;17.216;2023-07-24T11:50:49;3.92;;;1.80;;
79135;SDS011;68533;51.090;17.216;2023-07-24T11:53:21;3.70;;;2.03;;
79135;SDS011;68533;51.090;17.216;2023-07-24T11:55:48;4.85;;;2.25;;
79135;SDS011;68533;51.090;17.216;2023-07-24T11:58:16;3.70;;;1.80;;
79135;SDS011;68533;51.090;17.216;2023-07-24T12:00:42;4.40;;;2.10;;
79135;SDS011;68533;51.090;17.216;2023-07-24T12:03:08;3.85;;;2.03;;
79135;SDS011;68533;51.090;17.216;2023-07-24T12:05:41;3.25;;;2.03;;
79135;SDS011;68533;51.090;17.216;2023-07-24T12:08:08;2.47;;;1.70;;
79135;SDS011;68533;51.090;17.216;2023-07-24T12:10:35;4.15;;;2.17;;
79135;SDS011;68533;51.090;17.216;2023-07-24T12:13:04;3.67;;;2.17;;
79135;SDS011;68533;51.090;17.216;2023-07-24T12:15:31;4.38;;;2.13;;
79135;SDS011;68533;51.090;17.216;2023-07-24T12:17:59;4.03;;;2.00;;
79135;SDS011;68533;51.090;17.216;2023-07-24T12:20:26;6.65;;;2.25;;
79135;SDS011;68533;51.090;17.216;2023-07-24T12:22:52;3.88;;;2.40;;
79135;SDS011;68533;51.090;17.216;2023-07-24T12:25:19;3.33;;;2.15;;
79135;SDS011;68533;51.090;17.216;2023-07-24T12:27:46;3.63;;;1.70;;
79135;SDS011;68533;51.090;17.216;2023-07-24T12:30:12;5.70;;;2.90;;
79135;SDS011;68533;51.090;17.216;2023-07-24T12:32:39;3.72;;;1.67;;
79135;SDS011;68533;51.090;17.216;2023-07-24T12:35:05;4.28;;;2.35;;
79135;SDS011;68533;51.090;17.216;2023-07-24T12:37:33;6.03;;;2.10;;
79135;SDS011;68533;51.090;17.216;2023-07-24T12:39:59;5.35;;;2.63;;
79135;SDS011;68533;51.090;17.216;2023-07-24T12:42:25;5.68;;;2.58;;
79135;SDS011;68533;51.090;17.216;2023-07-24T12:44:52;3.22;;;1.95;;
79135;SDS011;68533;51.090;17.216;2023-07-24T12:47:18;3.33;;;2.05;;
79135;SDS011;68533;51.090;17.216;2023-07-24T12:49:44;4.57;;;2.15;;
79135;SDS011;68533;51.090;17.216;2023-07-24T12:52:10;2.95;;;1.75;;
79135;SDS011;68533;51.090;17.216;2023-07-24T12:54:37;4.70;;;2.67;;
79135;SDS011;68533;51.090;17.216;2023-07-24T12:57:04;2.90;;;2.08;;
79135;SDS011;68533;51.090;17.216;2023-07-24T12:59:30;4.10;;;2.80;;
79135;SDS011;68533;51.090;17.216;2023-07-24T13:01:57;5.22;;;2.85;;
79135;SDS011;68533;51.090;17.216;2023-07-24T13:04:23;5.70;;;2.90;;
79135;SDS011;68533;51.090;17.216;2023-07-24T13:06:49;4.32;;;1.98;;
79135;SDS011;68533;51.090;17.216;2023-07-24T13:09:15;3.80;;;2.38;;
79135;SDS011;68533;51.090;17.216;2023-07-24T13:11:41;5.78;;;2.55;;
79135;SDS011;68533;51.090;17.216;2023-07-24T13:14:07;5.78;;;2.70;;
79135;SDS011;68533;51.090;17.216;2023-07-24T13:16:34;5.07;;;2.95;;
79135;SDS011;68533;51.090;17.216;2023-07-24T13:19:00;5.10;;;2.28;;
79135;SDS011;68533;51.090;17.216;2023-07-24T13:21:26;10.45;;;3.08;;
79135;SDS011;68533;51.090;17.216;2023-07-24T13:23:52;4.68;;;2.25;;
79135;SDS011;68533;51.090;17.216;2023-07-24T13:26:18;5.13;;;2.80;;
79135;SDS011;68533;51.090;17.216;2023-07-24T13:28:44;4.50;;;2.20;;
79135;SDS011;68533;51.090;17.216;2023-07-24T13:31:17;5.13;;;2.25;;
79135;SDS011;68533;51.090;17.216;2023-07-24T13:36:11;3.95;;;2.70;;
79135;SDS011;68533;51.090;17.216;2023-07-24T13:38:37;8.85;;;2.72;;
79135;SDS011;68533;51.090;17.216;2023-07-24T13:41:03;4.95;;;2.53;;
79135;SDS011;68533;51.090;17.216;2023-07-24T13:43:30;6.00;;;2.47;;
79135;SDS011;68533;51.090;17.216;2023-07-24T13:45:57;3.67;;;2.78;;
79135;SDS011;68533;51.090;17.216;2023-07-24T13:48:24;3.83;;;2.03;;
79135;SDS011;68533;51.090;17.216;2023-07-24T13:50:52;9.23;;;2.83;;
79135;SDS011;68533;51.090;17.216;2023-07-24T13:53:17;5.38;;;2.13;;
79135;SDS011;68533;51.090;17.216;2023-07-24T13:55:44;5.15;;;2.53;;
79135;SDS011;68533;51.090;17.216;2023-07-24T13:58:09;3.30;;;1.98;;
79135;SDS011;68533;51.090;17.216;2023-07-24T14:00:35;3.78;;;2.05;;
79135;SDS011;68533;51.090;17.216;2023-07-24T14:03:01;5.57;;;2.47;;
79135;SDS011;68533;51.090;17.216;2023-07-24T14:05:28;10.13;;;2.35;;
79135;SDS011;68533;51.090;17.216;2023-07-24T14:07:54;3.90;;;2.17;;
79135;SDS011;68533;51.090;17.216;2023-07-24T14:10:20;5.55;;;2.47;;
79135;SDS011;68533;51.090;17.216;2023-07-24T14:12:46;3.63;;;2.17;;
79135;SDS011;68533;51.090;17.216;2023-07-24T14:15:13;7.47;;;3.08;;
79135;SDS011;68533;51.090;17.216;2023-07-24T14:17:39;4.30;;;2.20;;
79135;SDS011;68533;51.090;17.216;2023-07-24T14:20:06;4.72;;;2.38;;
79135;SDS011;68533;51.090;17.216;2023-07-24T14:22:33;3.90;;;2.35;;
79135;SDS011;68533;51.090;17.216;2023-07-24T14:24:59;4.90;;;2.63;;
79135;SDS011;68533;51.090;17.216;2023-07-24T14:27:25;5.63;;;2.45;;
79135;SDS011;68533;51.090;17.216;2023-07-24T14:29:51;4.65;;;2.33;;
79135;SDS011;68533;51.090;17.216;2023-07-24T14:32:17;6.55;;;2.53;;
79135;SDS011;68533;51.090;17.216;2023-07-24T14:34:43;5.15;;;2.10;;
79135;SDS011;68533;51.090;17.216;2023-07-24T14:37:09;2.85;;;1.73;;
79135;SDS011;68533;51.090;17.216;2023-07-24T14:39:35;4.65;;;2.40;;
79135;SDS011;68533;51.090;17.216;2023-07-24T14:42:02;3.78;;;2.30;;
79135;SDS011;68533;51.090;17.216;2023-07-24T14:44:28;6.13;;;2.05;;